createdAt,value
2017-09-29T00:01:01.495Z,92.70
2017-09-29T00:03:29.782Z,92.80
2017-09-29T00:05:58.078Z,93.10
2017-09-29T00:08:27.163Z,93.30
2017-09-29T00:10:55.383Z,93.30
2017-09-29T00:13:23.652Z,93.20
2017-09-29T00:15:51.934Z,93.20
2017-09-29T00:18:20.206Z,93.10
2017-09-29T00:20:48.503Z,93.20
2017-09-29T00:23:16.779Z,93.60
2017-09-29T00:25:45.091Z,94.20
2017-09-29T00:28:13.335Z,94.10
2017-09-29T00:30:41.621Z,94.10
2017-09-29T00:33:09.860Z,93.90
2017-09-29T00:35:38.221Z,94.00
2017-09-29T00:38:06.449Z,93.90
2017-09-29T00:40:34.704Z,93.90
2017-09-29T00:43:03.844Z,93.90
2017-09-29T00:45:32.135Z,93.90
2017-09-29T00:48:00.393Z,94.00
2017-09-29T00:50:28.681Z,94.10
2017-09-29T00:52:57.008Z,94.10
2017-09-29T00:55:26.011Z,94.20
2017-09-29T00:57:55.146Z,94.20
2017-09-29T01:00:23.470Z,94.20
2017-09-29T01:02:52.510Z,94.10
2017-09-29T01:05:20.794Z,94.00
2017-09-29T01:07:49.086Z,93.90
2017-09-29T01:10:17.530Z,93.80
2017-09-29T01:12:45.781Z,93.60
2017-09-29T01:15:14.100Z,94.00
2017-09-29T01:17:42.361Z,94.00
2017-09-29T01:20:10.647Z,93.80
2017-09-29T01:22:38.930Z,93.50
2017-09-29T01:25:07.210Z,93.70
2017-09-29T01:27:35.481Z,93.80
2017-09-29T01:30:03.775Z,94.00
2017-09-29T01:32:32.036Z,94.10
2017-09-29T01:35:00.873Z,94.30
2017-09-29T01:37:29.906Z,94.10
2017-09-29T01:39:59.078Z,94.10
2017-09-29T01:42:28.095Z,94.30
2017-09-29T01:44:56.406Z,94.30
2017-09-29T01:47:25.472Z,93.80
2017-09-29T01:49:53.747Z,94.00
2017-09-29T01:52:22.041Z,93.90
2017-09-29T01:54:51.117Z,93.50
2017-09-29T01:57:19.404Z,93.50
2017-09-29T01:59:47.683Z,93.50
2017-09-29T02:02:15.955Z,93.60
2017-09-29T02:04:44.269Z,93.60
2017-09-29T02:07:12.630Z,93.60
2017-09-29T02:09:40.865Z,93.80
2017-09-29T02:12:09.172Z,94.10
2017-09-29T02:14:37.463Z,94.20
2017-09-29T02:17:05.734Z,94.30
2017-09-29T02:19:34.032Z,94.50
2017-09-29T02:22:02.317Z,94.50
2017-09-29T02:24:30.719Z,94.40
2017-09-29T02:26:58.946Z,94.10
2017-09-29T02:29:27.234Z,94.10
2017-09-29T02:31:55.540Z,94.00
2017-09-29T02:34:24.599Z,93.80
2017-09-29T02:36:52.850Z,93.80
2017-09-29T02:39:21.139Z,93.60
2017-09-29T02:41:49.426Z,93.50
2017-09-29T02:44:18.064Z,93.60
2017-09-29T02:46:46.297Z,93.70
2017-09-29T02:49:14.588Z,93.80
2017-09-29T02:51:42.877Z,94.00
2017-09-29T02:54:11.938Z,94.10
2017-09-29T02:56:42.339Z,94.10
2017-09-29T02:59:11.732Z,94.20
2017-09-29T03:01:44.886Z,94.10
2017-09-29T03:04:17.760Z,94.30
2017-09-29T03:06:46.157Z,94.30
2017-09-29T03:09:14.410Z,94.40
2017-09-29T03:11:42.652Z,94.30
2017-09-29T03:14:10.940Z,94.30
2017-09-29T03:16:40.712Z,94.00
2017-09-29T03:19:08.968Z,93.80
2017-09-29T03:21:37.252Z,93.80
2017-09-29T03:24:05.494Z,93.80
2017-09-29T03:26:33.748Z,93.80
2017-09-29T03:29:02.792Z,93.70
2017-09-29T03:31:31.938Z,93.70
2017-09-29T03:34:00.975Z,93.60
2017-09-29T03:36:29.228Z,93.50
2017-09-29T03:38:57.462Z,93.50
2017-09-29T03:41:25.749Z,93.50
2017-09-29T03:43:54.050Z,93.70
2017-09-29T03:46:23.050Z,93.70
2017-09-29T03:48:51.323Z,93.70
2017-09-29T03:51:21.403Z,93.60
2017-09-29T03:53:53.383Z,93.70
2017-09-29T03:56:22.921Z,94.10
2017-09-29T03:58:53.350Z,94.20
2017-09-29T04:01:22.692Z,94.30
2017-09-29T04:03:50.926Z,94.30
2017-09-29T04:06:19.198Z,94.10
2017-09-29T04:08:48.347Z,94.30
2017-09-29T04:11:16.604Z,94.20
2017-09-29T04:13:44.875Z,94.10
2017-09-29T04:16:13.126Z,94.30
2017-09-29T04:18:41.439Z,94.40
2017-09-29T04:21:09.671Z,94.40
2017-09-29T04:23:38.718Z,94.00
2017-09-29T04:26:07.009Z,94.00
2017-09-29T04:28:35.276Z,94.10
2017-09-29T04:31:03.546Z,93.90
2017-09-29T04:33:31.807Z,93.80
2017-09-29T04:36:00.810Z,93.70
2017-09-29T04:38:29.080Z,94.00
2017-09-29T04:40:57.350Z,93.90
2017-09-29T04:43:25.642Z,93.70
2017-09-29T04:45:53.932Z,93.70
2017-09-29T04:48:22.227Z,93.60
2017-09-29T04:50:50.443Z,93.70
2017-09-29T04:53:19.455Z,93.80
2017-09-29T04:55:47.725Z,93.70
2017-09-29T04:58:16.710Z,93.90
2017-09-29T05:00:45.751Z,93.80
2017-09-29T05:03:14.772Z,93.90
2017-09-29T05:05:43.032Z,93.90
2017-09-29T05:08:11.314Z,93.90
2017-09-29T05:10:39.572Z,93.80
2017-09-29T05:13:07.842Z,93.70
2017-09-29T05:15:36.098Z,93.70
2017-09-29T05:18:04.409Z,93.60
2017-09-29T05:20:32.685Z,93.70
2017-09-29T05:23:00.987Z,93.90
2017-09-29T05:25:29.273Z,93.90
2017-09-29T05:27:57.656Z,94.00
2017-09-29T05:30:25.958Z,93.60
2017-09-29T05:32:54.964Z,93.80
2017-09-29T05:35:23.290Z,93.80
2017-09-29T05:37:52.433Z,94.10
2017-09-29T05:40:21.433Z,93.80
2017-09-29T05:42:49.714Z,93.80
2017-09-29T05:45:17.972Z,93.60
2017-09-29T05:47:46.754Z,93.60
2017-09-29T05:50:15.794Z,93.70
2017-09-29T05:52:44.041Z,93.60
2017-09-29T05:55:12.308Z,93.60
2017-09-29T05:57:41.355Z,93.80
2017-09-29T06:00:09.623Z,93.80
2017-09-29T06:02:37.986Z,93.80
2017-09-29T06:05:06.235Z,93.70
2017-09-29T06:07:35.282Z,93.90
2017-09-29T06:10:03.565Z,93.90
2017-09-29T06:12:31.842Z,93.80
2017-09-29T06:15:00.356Z,93.90
2017-09-29T06:17:28.625Z,93.80
2017-09-29T06:19:57.322Z,93.90
2017-09-29T06:22:25.554Z,93.80
2017-09-29T06:24:53.835Z,93.60
2017-09-29T06:27:22.178Z,93.60
2017-09-29T06:29:51.543Z,93.60
2017-09-29T06:32:19.836Z,93.60
2017-09-29T06:34:48.127Z,93.70
2017-09-29T06:37:17.825Z,93.70
2017-09-29T06:39:46.900Z,93.70
2017-09-29T06:42:15.127Z,93.70
2017-09-29T06:44:43.401Z,93.70
2017-09-29T06:47:12.464Z,93.50
2017-09-29T06:49:40.703Z,93.50
2017-09-29T06:52:09.443Z,93.70
2017-09-29T06:54:37.693Z,93.70
2017-09-29T06:57:05.957Z,93.80
2017-09-29T06:59:34.214Z,93.80
2017-09-29T07:02:02.486Z,93.80
2017-09-29T07:04:30.798Z,93.70
2017-09-29T07:06:58.998Z,93.60
2017-09-29T07:09:28.066Z,93.30
2017-09-29T07:11:57.640Z,93.30
2017-09-29T07:14:25.904Z,93.30
2017-09-29T07:16:54.183Z,92.90
2017-09-29T07:19:22.456Z,92.60
2017-09-29T07:21:50.730Z,92.50
2017-09-29T07:24:19.758Z,91.90
2017-09-29T07:26:49.627Z,91.90
2017-09-29T07:29:19.746Z,91.60
2017-09-29T07:31:49.078Z,91.60
2017-09-29T07:34:17.553Z,91.50
2017-09-29T07:36:45.805Z,91.30
2017-09-29T07:39:14.864Z,90.60
2017-09-29T07:41:43.152Z,90.60
2017-09-29T07:44:11.419Z,90.30
2017-09-29T07:46:39.717Z,90.50
2017-09-29T07:49:08.090Z,90.40
2017-09-29T07:51:36.374Z,90.10
2017-09-29T07:54:04.628Z,89.80
2017-09-29T07:56:32.902Z,88.30
2017-09-29T07:59:01.174Z,88.90
2017-09-29T08:01:29.443Z,88.80
2017-09-29T08:03:57.742Z,88.90
2017-09-29T08:06:26.743Z,87.90
2017-09-29T08:08:54.993Z,87.80
2017-09-29T08:11:23.263Z,88.00
2017-09-29T08:13:51.523Z,87.10
2017-09-29T08:16:20.547Z,86.70
2017-09-29T08:18:48.791Z,86.60
2017-09-29T08:21:17.079Z,85.90
2017-09-29T08:23:46.096Z,85.20
2017-09-29T08:26:14.365Z,85.20
2017-09-29T08:28:42.684Z,85.10
2017-09-29T08:31:10.944Z,83.70
2017-09-29T08:33:39.169Z,83.60
2017-09-29T08:36:08.179Z,83.60
2017-09-29T08:38:36.482Z,83.60
2017-09-29T08:41:04.760Z,83.50
2017-09-29T08:43:33.014Z,82.80
2017-09-29T08:46:01.354Z,81.60
2017-09-29T08:48:29.590Z,82.10
2017-09-29T08:50:57.833Z,81.00
2017-09-29T08:53:26.854Z,81.70
2017-09-29T08:55:55.085Z,81.70
2017-09-29T08:58:24.123Z,80.90
2017-09-29T09:00:53.577Z,79.80
2017-09-29T09:03:21.858Z,79.80
2017-09-29T09:05:50.897Z,79.80
2017-09-29T09:08:19.156Z,79.80
2017-09-29T09:10:47.422Z,79.60
2017-09-29T09:13:16.446Z,79.20
2017-09-29T09:15:44.706Z,79.10
2017-09-29T09:18:12.965Z,80.00
2017-09-29T09:20:41.486Z,79.90
2017-09-29T09:23:09.792Z,79.60
2017-09-29T09:25:38.089Z,79.60
2017-09-29T09:28:06.356Z,80.00
2017-09-29T09:30:34.590Z,80.80
2017-09-29T09:33:02.846Z,79.40
2017-09-29T09:35:31.868Z,78.90
2017-09-29T09:38:00.166Z,78.80
2017-09-29T09:40:28.383Z,78.30
2017-09-29T09:42:57.433Z,77.80
2017-09-29T09:45:25.717Z,77.80
2017-09-29T09:47:54.562Z,77.90
2017-09-29T09:50:23.601Z,76.60
2017-09-29T09:52:51.869Z,76.60
2017-09-29T09:55:20.909Z,75.90
2017-09-29T09:57:49.930Z,76.30
2017-09-29T10:00:18.212Z,76.30
2017-09-29T10:02:46.482Z,76.00
2017-09-29T10:05:15.481Z,74.50
2017-09-29T10:07:44.647Z,75.60
2017-09-29T10:10:12.900Z,75.80
2017-09-29T10:12:41.137Z,75.80
2017-09-29T10:15:09.429Z,76.10
2017-09-29T10:17:37.634Z,76.70
2017-09-29T10:20:05.935Z,77.40
2017-09-29T10:22:34.966Z,76.50
2017-09-29T10:25:03.226Z,75.80
2017-09-29T10:27:31.533Z,75.40
2017-09-29T10:29:59.770Z,75.40
2017-09-29T10:32:28.030Z,74.70
2017-09-29T10:34:56.282Z,73.70
2017-09-29T10:37:24.871Z,73.70
2017-09-29T10:39:53.126Z,74.70
2017-09-29T10:42:22.945Z,74.80
2017-09-29T10:44:51.220Z,74.50
2017-09-29T10:47:19.445Z,73.20
2017-09-29T10:49:47.813Z,72.90
2017-09-29T10:52:16.066Z,72.80
2017-09-29T10:54:44.311Z,72.70
2017-09-29T10:57:12.597Z,72.10
2017-09-29T10:59:40.874Z,71.40
2017-09-29T11:02:09.168Z,71.20
2017-09-29T11:04:37.434Z,70.70
2017-09-29T11:07:05.711Z,67.60
2017-09-29T11:09:34.043Z,67.70
2017-09-29T11:12:03.523Z,67.50
2017-09-29T11:14:32.598Z,68.10
2017-09-29T11:17:00.846Z,68.20
2017-09-29T11:19:30.013Z,68.20
2017-09-29T11:21:58.235Z,68.50
2017-09-29T11:24:26.512Z,68.40
2017-09-29T11:26:54.771Z,67.40
2017-09-29T11:29:23.813Z,68.20
2017-09-29T11:31:52.053Z,68.20
2017-09-29T11:34:20.331Z,64.00
2017-09-29T11:36:48.595Z,66.00
2017-09-29T11:39:16.860Z,65.50
2017-09-29T11:41:45.106Z,66.40
2017-09-29T11:44:13.336Z,66.60
2017-09-29T11:46:42.373Z,64.60
2017-09-29T11:49:10.647Z,64.60
2017-09-29T11:51:38.894Z,65.60
2017-09-29T11:54:07.183Z,64.30
2017-09-29T11:56:35.475Z,65.80
2017-09-29T11:59:03.754Z,65.00
2017-09-29T12:01:32.005Z,64.30
2017-09-29T12:04:00.263Z,64.90
2017-09-29T12:06:29.298Z,64.50
2017-09-29T12:08:57.585Z,64.50
2017-09-29T12:11:25.835Z,64.50
2017-09-29T12:13:54.083Z,63.00
2017-09-29T12:16:22.427Z,63.30
2017-09-29T12:18:50.730Z,63.60
2017-09-29T12:21:18.994Z,63.50
2017-09-29T12:23:47.232Z,62.70
2017-09-29T12:26:15.472Z,60.90
2017-09-29T12:28:44.564Z,59.70
2017-09-29T12:31:12.823Z,59.70
2017-09-29T12:33:41.113Z,60.80
2017-09-29T12:36:09.396Z,60.50
2017-09-29T12:38:39.333Z,62.70
2017-09-29T12:41:07.570Z,62.70
2017-09-29T12:43:35.844Z,63.20
2017-09-29T12:46:04.196Z,63.20
2017-09-29T12:48:32.490Z,62.60
2017-09-29T12:51:00.806Z,63.50
2017-09-29T12:53:29.893Z,62.90
2017-09-29T12:55:58.481Z,63.20
2017-09-29T12:58:27.511Z,64.60
2017-09-29T13:00:55.791Z,63.80
2017-09-29T13:03:24.115Z,64.30
2017-09-29T13:05:53.176Z,63.80
2017-09-29T13:08:21.445Z,63.80
2017-09-29T13:10:49.706Z,64.80
2017-09-29T13:13:17.997Z,64.80
2017-09-29T13:15:46.263Z,66.00
2017-09-29T13:18:14.554Z,67.00
2017-09-29T13:20:43.495Z,66.20
2017-09-29T13:23:13.103Z,68.10
2017-09-29T13:25:41.668Z,67.40
2017-09-29T13:28:09.914Z,67.40
2017-09-29T13:30:38.219Z,65.80
2017-09-29T13:33:06.446Z,65.80
2017-09-29T13:35:34.738Z,65.10
2017-09-29T13:38:03.739Z,63.50
2017-09-29T13:40:32.005Z,63.50
2017-09-29T13:43:00.255Z,65.30
2017-09-29T13:45:29.294Z,63.50
2017-09-29T13:47:58.245Z,63.40
2017-09-29T13:50:26.820Z,62.80
2017-09-29T13:52:55.102Z,63.80
2017-09-29T13:55:23.594Z,65.00
2017-09-29T13:57:52.614Z,63.90
2017-09-29T14:00:21.674Z,63.90
2017-09-29T14:02:50.366Z,64.20
2017-09-29T14:05:19.392Z,64.50
2017-09-29T14:07:47.658Z,64.50
2017-09-29T14:10:16.697Z,65.20
2017-09-29T14:12:45.065Z,65.20
2017-09-29T14:15:13.332Z,64.40
2017-09-29T14:17:41.583Z,65.20
2017-09-29T14:20:09.852Z,65.00
2017-09-29T14:22:39.751Z,64.50
2017-09-29T14:25:08.008Z,64.50
2017-09-29T14:27:36.323Z,65.60
2017-09-29T14:30:04.652Z,65.30
2017-09-29T14:32:32.943Z,64.90
2017-09-29T14:35:01.782Z,65.60
2017-09-29T14:37:30.100Z,64.80
2017-09-29T14:39:58.359Z,65.20
2017-09-29T14:42:26.608Z,65.90
2017-09-29T14:44:55.655Z,67.00
2017-09-29T14:47:23.938Z,67.00
2017-09-29T14:49:52.245Z,66.60
2017-09-29T14:52:20.856Z,66.80
2017-09-29T14:54:49.132Z,67.00
2017-09-29T14:57:18.439Z,67.90
2017-09-29T14:59:47.082Z,67.90
2017-09-29T15:02:15.335Z,69.40
2017-09-29T15:04:43.655Z,69.00
2017-09-29T15:07:12.687Z,69.60
2017-09-29T15:09:40.934Z,69.60
2017-09-29T15:12:09.270Z,68.90
2017-09-29T15:14:38.255Z,68.90
2017-09-29T15:17:06.481Z,69.20
2017-09-29T15:19:34.797Z,69.80
2017-09-29T15:22:03.951Z,69.70
2017-09-29T15:24:32.982Z,70.40
2017-09-29T15:27:00.784Z,70.40
2017-09-29T15:29:29.027Z,70.80
2017-09-29T15:31:57.314Z,70.70
2017-09-29T15:34:26.527Z,71.10
2017-09-29T15:36:54.829Z,71.00
2017-09-29T15:39:23.125Z,71.70
2017-09-29T15:41:52.173Z,71.60
2017-09-29T15:44:21.305Z,72.10
2017-09-29T15:46:49.662Z,71.70
2017-09-29T15:49:17.911Z,71.70
2017-09-29T15:51:46.223Z,71.50
2017-09-29T15:54:14.476Z,71.80
2017-09-29T15:56:42.792Z,72.60
2017-09-29T15:59:11.103Z,72.90
2017-09-29T16:01:40.138Z,75.00
2017-09-29T16:04:08.459Z,74.90
2017-09-29T16:06:37.022Z,75.60
2017-09-29T16:09:05.315Z,75.60
2017-09-29T16:11:33.572Z,76.60
2017-09-29T16:14:01.863Z,76.90
2017-09-29T16:16:30.097Z,77.00
2017-09-29T16:18:58.351Z,77.40
2017-09-29T16:21:26.611Z,77.80
2017-09-29T16:23:55.633Z,79.40
2017-09-29T16:26:23.884Z,79.40
2017-09-29T16:28:52.954Z,80.50
2017-09-29T16:31:21.190Z,80.50
2017-09-29T16:33:49.457Z,80.80
2017-09-29T16:36:17.807Z,81.30
2017-09-29T16:38:46.821Z,81.70
2017-09-29T16:41:15.068Z,81.70
2017-09-29T16:43:44.164Z,82.40
2017-09-29T16:46:12.615Z,81.90
2017-09-29T16:48:40.843Z,82.10
2017-09-29T16:51:09.886Z,83.40
2017-09-29T16:53:38.132Z,83.30
2017-09-29T16:56:06.423Z,83.70
2017-09-29T16:58:34.725Z,84.00
2017-09-29T17:01:03.119Z,84.40
2017-09-29T17:03:31.353Z,84.50
2017-09-29T17:05:59.675Z,85.10
2017-09-29T17:08:27.950Z,85.70
2017-09-29T17:10:56.200Z,86.10
2017-09-29T17:13:24.493Z,86.20
2017-09-29T17:15:52.863Z,86.60
2017-09-29T17:18:22.452Z,87.60
2017-09-29T17:20:50.721Z,87.60
2017-09-29T17:23:19.008Z,87.80
2017-09-29T17:25:47.311Z,88.30
2017-09-29T17:28:16.094Z,88.30
2017-09-29T17:30:44.358Z,88.60
2017-09-29T17:33:12.636Z,88.50
2017-09-29T17:35:40.936Z,88.10
2017-09-29T17:38:09.198Z,87.90
2017-09-29T17:40:37.452Z,87.70
2017-09-29T17:43:05.749Z,88.30
2017-09-29T17:45:34.039Z,89.10
2017-09-29T17:48:02.303Z,88.10
2017-09-29T17:50:31.392Z,88.40
2017-09-29T17:52:59.684Z,88.30
2017-09-29T17:55:27.945Z,88.40
2017-09-29T17:57:56.214Z,88.10
2017-09-29T18:00:24.496Z,88.10
2017-09-29T18:02:52.778Z,88.00
2017-09-29T18:05:21.079Z,88.10
2017-09-29T18:07:49.567Z,87.40
2017-09-29T18:10:17.835Z,87.50
2017-09-29T18:12:46.131Z,87.40
2017-09-29T18:15:15.200Z,87.50
2017-09-29T18:17:43.533Z,87.50
2017-09-29T18:20:12.669Z,87.40
2017-09-29T18:22:40.942Z,87.20
2017-09-29T18:25:09.251Z,87.10
2017-09-29T18:27:37.512Z,87.70
2017-09-29T18:30:05.835Z,87.60
2017-09-29T18:32:34.161Z,87.50
2017-09-29T18:35:03.469Z,87.60
2017-09-29T18:37:31.793Z,87.60
2017-09-29T18:40:04.412Z,87.10
2017-09-29T18:42:32.726Z,87.10
2017-09-29T18:45:20.586Z,87.40
2017-09-29T18:47:48.869Z,87.40
2017-09-29T18:50:17.979Z,87.70
2017-09-29T18:52:46.318Z,87.70
2017-09-29T18:55:14.595Z,87.60
2017-09-29T18:57:42.963Z,87.70
2017-09-29T19:00:11.424Z,87.70
2017-09-29T19:02:39.743Z,88.20
2017-09-29T19:05:07.995Z,88.60
2017-09-29T19:07:36.297Z,88.90
2017-09-29T19:10:04.652Z,89.30
2017-09-29T19:12:32.933Z,89.50
2017-09-29T19:15:01.244Z,89.50
2017-09-29T19:17:29.526Z,89.30
2017-09-29T19:19:57.853Z,89.30
2017-09-29T19:22:26.148Z,88.90
2017-09-29T19:24:54.458Z,89.10
2017-09-29T19:27:23.519Z,88.70
2017-09-29T19:29:51.829Z,88.70
2017-09-29T19:32:20.533Z,88.10
2017-09-29T19:34:49.556Z,87.80
2017-09-29T19:37:17.828Z,87.80
2017-09-29T19:39:46.582Z,87.50
2017-09-29T19:42:15.685Z,87.40
2017-09-29T19:44:44.766Z,87.60
2017-09-29T19:47:13.137Z,87.60
2017-09-29T19:49:41.465Z,87.40
2017-09-29T19:52:09.743Z,87.60
2017-09-29T19:54:38.174Z,86.10
2017-09-29T19:57:07.220Z,86.50
2017-09-29T19:59:35.507Z,86.50
2017-09-29T20:02:03.791Z,86.30
2017-09-29T20:04:32.207Z,86.80
2017-09-29T20:07:00.705Z,87.00
2017-09-29T20:09:29.738Z,85.10
2017-09-29T20:11:58.039Z,85.10
2017-09-29T20:14:26.327Z,84.70
2017-09-29T20:16:54.613Z,84.60
2017-09-29T20:19:22.880Z,84.50
2017-09-29T20:21:51.163Z,83.90
2017-09-29T20:24:19.460Z,83.40
2017-09-29T20:26:48.515Z,83.10
2017-09-29T20:29:16.802Z,83.10
2017-09-29T20:31:45.973Z,83.10
2017-09-29T20:34:14.238Z,82.90
2017-09-29T20:36:42.499Z,82.70
2017-09-29T20:39:11.521Z,82.40
2017-09-29T20:41:39.874Z,82.40
2017-09-29T20:44:08.686Z,82.40
2017-09-29T20:46:37.534Z,82.60
2017-09-29T20:49:17.273Z,82.90
2017-09-29T20:51:45.549Z,82.90
2017-09-29T20:54:13.814Z,83.90
2017-09-29T20:56:42.070Z,83.50
2017-09-29T20:59:10.345Z,83.80
2017-09-29T21:01:38.642Z,84.20
2017-09-29T21:04:06.923Z,84.50
2017-09-29T21:06:35.322Z,84.90
2017-09-29T21:09:03.622Z,84.70
2017-09-29T21:11:31.898Z,83.70
2017-09-29T21:14:00.929Z,84.30
2017-09-29T21:16:29.214Z,84.30
2017-09-29T21:18:57.474Z,84.60
2017-09-29T21:21:25.736Z,84.60
2017-09-29T21:23:54.039Z,84.90
2017-09-29T21:26:23.236Z,85.20
2017-09-29T21:28:51.666Z,85.60
2017-09-29T21:31:20.738Z,85.30
2017-09-29T21:33:48.997Z,85.20
2017-09-29T21:36:17.423Z,85.20
2017-09-29T21:38:45.654Z,85.20
2017-09-29T21:41:13.893Z,85.20
2017-09-29T21:43:42.900Z,85.50
2017-09-29T21:46:11.172Z,85.50
2017-09-29T21:48:40.229Z,85.20
2017-09-29T21:51:08.941Z,85.30
2017-09-29T21:53:39.247Z,85.80
2017-09-29T21:56:07.637Z,85.80
2017-09-29T21:58:35.902Z,85.60
2017-09-29T22:01:04.153Z,86.10
2017-09-29T22:03:32.410Z,86.70
2017-09-29T22:06:01.555Z,86.40
2017-09-29T22:08:29.823Z,86.50
2017-09-29T22:10:58.095Z,88.00
2017-09-29T22:13:27.513Z,87.30
2017-09-29T22:15:56.414Z,87.30
2017-09-29T22:18:24.706Z,88.30
2017-09-29T22:20:53.737Z,89.70
2017-09-29T22:23:22.010Z,89.60
2017-09-29T22:25:50.260Z,89.80
2017-09-29T22:28:18.518Z,88.50
2017-09-29T22:30:47.590Z,88.50
2017-09-29T22:33:16.012Z,88.60
2017-09-29T22:35:44.248Z,88.00
2017-09-29T22:38:12.508Z,88.70
2017-09-29T22:40:41.186Z,89.00
2017-09-29T22:43:09.423Z,89.30
2017-09-29T22:45:38.477Z,89.70
2017-09-29T22:48:06.723Z,89.70
2017-09-29T22:50:34.990Z,89.70
2017-09-29T22:53:03.243Z,89.00
2017-09-29T22:55:32.257Z,89.80
2017-09-29T22:58:00.581Z,89.80
2017-09-29T23:00:28.833Z,89.30
2017-09-29T23:02:57.140Z,89.80
2017-09-29T23:05:25.381Z,89.40
2017-09-29T23:07:53.660Z,89.20
2017-09-29T23:10:22.817Z,89.70
2017-09-29T23:12:51.035Z,89.70
2017-09-29T23:15:19.297Z,89.70
2017-09-29T23:17:48.524Z,89.70
2017-09-29T23:20:16.793Z,89.60
2017-09-29T23:22:45.085Z,89.70
2017-09-29T23:25:13.335Z,89.70
2017-09-29T23:27:41.595Z,89.80
2017-09-29T23:30:09.864Z,90.10
2017-09-29T23:32:38.250Z,89.60
2017-09-29T23:35:06.524Z,89.50
2017-09-29T23:37:36.291Z,89.00
2017-09-29T23:40:04.566Z,89.00
2017-09-29T23:42:32.819Z,88.10
2017-09-29T23:45:01.227Z,88.50
2017-09-29T23:47:29.487Z,88.80
2017-09-29T23:49:57.744Z,88.80
2017-09-29T23:52:26.007Z,88.80
2017-09-29T23:54:55.057Z,88.70
2017-09-29T23:57:23.324Z,88.70
2017-09-29T23:59:51.552Z,88.50
